sensor_id;sensor_type;location;lat;lon;timestamp;P1;durP1;ratioP1;P2;durP2;ratioP2
17024;SDS011;8629;42.496;25.620;2023-08-17T00:00:18;4.10;;;3.70;;
17024;SDS011;8629;42.496;25.620;2023-08-17T00:02:47;7.07;;;4.27;;
17024;SDS011;8629;42.496;25.620;2023-08-17T00:05:14;5.07;;;3.27;;
17024;SDS011;8629;42.496;25.620;2023-08-17T00:07:41;4.40;;;3.37;;
17024;SDS011;8629;42.496;25.620;2023-08-17T00:10:08;4.53;;;3.67;;
17024;SDS011;8629;42.496;25.620;2023-08-17T00:12:36;5.67;;;4.43;;
17024;SDS011;8629;42.496;25.620;2023-08-17T00:15:03;7.07;;;4.63;;
17024;SDS011;8629;42.496;25.620;2023-08-17T00:17:31;4.77;;;4.30;;
17024;SDS011;8629;42.496;25.620;2023-08-17T00:19:59;4.00;;;3.70;;
17024;SDS011;8629;42.496;25.620;2023-08-17T00:22:30;7.00;;;3.90;;
17024;SDS011;8629;42.496;25.620;2023-08-17T00:24:57;5.47;;;4.40;;
17024;SDS011;8629;42.496;25.620;2023-08-17T00:27:24;5.67;;;3.80;;
17024;SDS011;8629;42.496;25.620;2023-08-17T00:29:51;6.43;;;4.13;;
17024;SDS011;8629;42.496;25.620;2023-08-17T00:32:18;5.47;;;3.63;;
17024;SDS011;8629;42.496;25.620;2023-08-17T00:34:44;4.87;;;3.83;;
17024;SDS011;8629;42.496;25.620;2023-08-17T00:37:15;4.20;;;3.77;;
17024;SDS011;8629;42.496;25.620;2023-08-17T00:39:42;5.13;;;4.23;;
17024;SDS011;8629;42.496;25.620;2023-08-17T00:42:10;4.40;;;3.80;;
17024;SDS011;8629;42.496;25.620;2023-08-17T00:44:37;4.73;;;4.27;;
17024;SDS011;8629;42.496;25.620;2023-08-17T00:47:04;4.57;;;4.03;;
17024;SDS011;8629;42.496;25.620;2023-08-17T00:49:31;8.00;;;4.33;;
17024;SDS011;8629;42.496;25.620;2023-08-17T00:51:58;5.40;;;3.60;;
17024;SDS011;8629;42.496;25.620;2023-08-17T00:54:26;4.37;;;3.80;;
17024;SDS011;8629;42.496;25.620;2023-08-17T00:56:53;5.23;;;4.67;;
17024;SDS011;8629;42.496;25.620;2023-08-17T00:59:20;4.53;;;4.13;;
17024;SDS011;8629;42.496;25.620;2023-08-17T01:01:48;6.10;;;4.40;;
17024;SDS011;8629;42.496;25.620;2023-08-17T01:04:14;6.37;;;3.80;;
17024;SDS011;8629;42.496;25.620;2023-08-17T01:06:41;5.20;;;4.03;;
17024;SDS011;8629;42.496;25.620;2023-08-17T01:09:08;4.90;;;4.37;;
17024;SDS011;8629;42.496;25.620;2023-08-17T01:11:39;8.43;;;3.87;;
17024;SDS011;8629;42.496;25.620;2023-08-17T01:14:13;7.00;;;4.17;;
17024;SDS011;8629;42.496;25.620;2023-08-17T01:16:47;4.23;;;3.83;;
17024;SDS011;8629;42.496;25.620;2023-08-17T01:19:24;4.53;;;4.13;;
17024;SDS011;8629;42.496;25.620;2023-08-17T01:21:54;4.90;;;4.40;;
17024;SDS011;8629;42.496;25.620;2023-08-17T01:24:24;4.47;;;4.07;;
17024;SDS011;8629;42.496;25.620;2023-08-17T01:26:51;4.80;;;4.07;;
17024;SDS011;8629;42.496;25.620;2023-08-17T01:29:18;4.73;;;4.33;;
17024;SDS011;8629;42.496;25.620;2023-08-17T01:31:47;4.13;;;3.83;;
17024;SDS011;8629;42.496;25.620;2023-08-17T01:34:20;5.37;;;4.20;;
17024;SDS011;8629;42.496;25.620;2023-08-17T01:36:50;6.93;;;4.50;;
17024;SDS011;8629;42.496;25.620;2023-08-17T01:39:20;5.83;;;4.60;;
17024;SDS011;8629;42.496;25.620;2023-08-17T01:42:01;7.50;;;4.77;;
17024;SDS011;8629;42.496;25.620;2023-08-17T01:44:28;5.83;;;4.23;;
17024;SDS011;8629;42.496;25.620;2023-08-17T01:46:55;6.23;;;5.37;;
17024;SDS011;8629;42.496;25.620;2023-08-17T01:49:23;7.67;;;4.80;;
17024;SDS011;8629;42.496;25.620;2023-08-17T01:51:50;5.93;;;4.60;;
17024;SDS011;8629;42.496;25.620;2023-08-17T01:54:17;6.03;;;4.40;;
17024;SDS011;8629;42.496;25.620;2023-08-17T01:56:45;8.03;;;5.00;;
17024;SDS011;8629;42.496;25.620;2023-08-17T01:59:12;6.07;;;5.10;;
17024;SDS011;8629;42.496;25.620;2023-08-17T02:01:39;5.50;;;4.97;;
17024;SDS011;8629;42.496;25.620;2023-08-17T02:04:06;5.90;;;4.63;;
17024;SDS011;8629;42.496;25.620;2023-08-17T02:06:33;7.90;;;4.60;;
17024;SDS011;8629;42.496;25.620;2023-08-17T02:09:00;5.27;;;4.77;;
17024;SDS011;8629;42.496;25.620;2023-08-17T02:11:27;6.60;;;5.20;;
17024;SDS011;8629;42.496;25.620;2023-08-17T02:13:56;5.40;;;4.60;;
17024;SDS011;8629;42.496;25.620;2023-08-17T02:16:23;5.27;;;4.77;;
17024;SDS011;8629;42.496;25.620;2023-08-17T02:18:50;6.07;;;4.50;;
17024;SDS011;8629;42.496;25.620;2023-08-17T02:21:17;5.70;;;4.67;;
17024;SDS011;8629;42.496;25.620;2023-08-17T02:23:44;6.30;;;4.70;;
17024;SDS011;8629;42.496;25.620;2023-08-17T02:26:12;8.07;;;4.73;;
17024;SDS011;8629;42.496;25.620;2023-08-17T02:28:39;5.87;;;5.23;;
17024;SDS011;8629;42.496;25.620;2023-08-17T02:31:08;5.27;;;4.50;;
17024;SDS011;8629;42.496;25.620;2023-08-17T02:33:35;6.03;;;5.07;;
17024;SDS011;8629;42.496;25.620;2023-08-17T02:36:03;5.83;;;4.83;;
17024;SDS011;8629;42.496;25.620;2023-08-17T02:38:31;9.03;;;5.60;;
17024;SDS011;8629;42.496;25.620;2023-08-17T02:40:58;6.77;;;5.43;;
17024;SDS011;8629;42.496;25.620;2023-08-17T02:43:24;8.00;;;4.73;;
17024;SDS011;8629;42.496;25.620;2023-08-17T02:45:52;9.07;;;4.40;;
17024;SDS011;8629;42.496;25.620;2023-08-17T02:48:20;12.07;;;6.00;;
17024;SDS011;8629;42.496;25.620;2023-08-17T02:50:47;7.40;;;4.63;;
17024;SDS011;8629;42.496;25.620;2023-08-17T02:53:14;6.63;;;4.57;;
17024;SDS011;8629;42.496;25.620;2023-08-17T02:55:41;5.00;;;4.57;;
17024;SDS011;8629;42.496;25.620;2023-08-17T02:58:08;5.43;;;4.60;;
17024;SDS011;8629;42.496;25.620;2023-08-17T03:00:35;5.07;;;4.67;;
17024;SDS011;8629;42.496;25.620;2023-08-17T03:03:02;5.50;;;5.00;;
17024;SDS011;8629;42.496;25.620;2023-08-17T03:05:31;6.50;;;4.77;;
17024;SDS011;8629;42.496;25.620;2023-08-17T03:07:58;6.33;;;4.30;;
17024;SDS011;8629;42.496;25.620;2023-08-17T03:10:25;5.70;;;5.07;;
17024;SDS011;8629;42.496;25.620;2023-08-17T03:12:52;5.67;;;5.03;;
17024;SDS011;8629;42.496;25.620;2023-08-17T03:15:19;4.93;;;4.50;;
17024;SDS011;8629;42.496;25.620;2023-08-17T03:17:46;6.37;;;4.80;;
17024;SDS011;8629;42.496;25.620;2023-08-17T03:20:13;5.63;;;4.00;;
17024;SDS011;8629;42.496;25.620;2023-08-17T03:22:42;8.07;;;5.20;;
17024;SDS011;8629;42.496;25.620;2023-08-17T03:25:08;5.07;;;4.60;;
17024;SDS011;8629;42.496;25.620;2023-08-17T03:27:36;5.13;;;4.53;;
17024;SDS011;8629;42.496;25.620;2023-08-17T03:30:03;4.90;;;4.40;;
17024;SDS011;8629;42.496;25.620;2023-08-17T03:32:31;5.77;;;4.47;;
17024;SDS011;8629;42.496;25.620;2023-08-17T03:34:58;7.70;;;4.90;;
17024;SDS011;8629;42.496;25.620;2023-08-17T03:37:25;4.53;;;4.13;;
17024;SDS011;8629;42.496;25.620;2023-08-17T03:39:53;5.73;;;5.03;;
17024;SDS011;8629;42.496;25.620;2023-08-17T03:42:20;6.37;;;5.20;;
17024;SDS011;8629;42.496;25.620;2023-08-17T03:44:47;5.40;;;4.23;;
17024;SDS011;8629;42.496;25.620;2023-08-17T03:47:14;7.00;;;4.40;;
17024;SDS011;8629;42.496;25.620;2023-08-17T03:49:41;6.03;;;5.07;;
17024;SDS011;8629;42.496;25.620;2023-08-17T03:52:08;4.33;;;4.03;;
17024;SDS011;8629;42.496;25.620;2023-08-17T03:54:35;4.93;;;4.53;;
17024;SDS011;8629;42.496;25.620;2023-08-17T03:57:04;6.20;;;5.23;;
17024;SDS011;8629;42.496;25.620;2023-08-17T03:59:31;4.93;;;4.43;;
17024;SDS011;8629;42.496;25.620;2023-08-17T04:01:58;15.83;;;5.57;;
17024;SDS011;8629;42.496;25.620;2023-08-17T04:04:25;6.07;;;4.13;;
17024;SDS011;8629;42.496;25.620;2023-08-17T04:06:52;5.33;;;4.50;;
17024;SDS011;8629;42.496;25.620;2023-08-17T04:09:20;7.23;;;4.80;;
17024;SDS011;8629;42.496;25.620;2023-08-17T04:11:47;6.47;;;5.67;;
17024;SDS011;8629;42.496;25.620;2023-08-17T04:14:16;4.93;;;4.50;;
17024;SDS011;8629;42.496;25.620;2023-08-17T04:16:42;6.77;;;4.73;;
17024;SDS011;8629;42.496;25.620;2023-08-17T04:19:09;8.63;;;5.53;;
17024;SDS011;8629;42.496;25.620;2023-08-17T04:21:36;4.43;;;4.00;;
17024;SDS011;8629;42.496;25.620;2023-08-17T04:24:03;6.17;;;4.77;;
17024;SDS011;8629;42.496;25.620;2023-08-17T04:26:31;4.97;;;4.23;;
17024;SDS011;8629;42.496;25.620;2023-08-17T04:28:57;4.83;;;4.37;;
17024;SDS011;8629;42.496;25.620;2023-08-17T04:31:25;4.80;;;4.40;;
17024;SDS011;8629;42.496;25.620;2023-08-17T04:33:52;6.83;;;5.37;;
17024;SDS011;8629;42.496;25.620;2023-08-17T04:36:19;5.40;;;4.70;;
17024;SDS011;8629;42.496;25.620;2023-08-17T04:38:46;4.53;;;4.23;;
17024;SDS011;8629;42.496;25.620;2023-08-17T04:41:13;8.63;;;4.90;;
17024;SDS011;8629;42.496;25.620;2023-08-17T04:43:40;5.37;;;3.93;;
17024;SDS011;8629;42.496;25.620;2023-08-17T04:46:08;16.63;;;5.30;;
17024;SDS011;8629;42.496;25.620;2023-08-17T04:48:36;6.73;;;4.57;;
17024;SDS011;8629;42.496;25.620;2023-08-17T04:51:03;6.40;;;4.63;;
17024;SDS011;8629;42.496;25.620;2023-08-17T04:53:29;6.20;;;4.83;;
17024;SDS011;8629;42.496;25.620;2023-08-17T04:55:56;6.50;;;4.60;;
17024;SDS011;8629;42.496;25.620;2023-08-17T04:58:24;6.57;;;4.37;;
17024;SDS011;8629;42.496;25.620;2023-08-17T05:00:51;5.23;;;4.83;;
17024;SDS011;8629;42.496;25.620;2023-08-17T05:03:18;6.53;;;4.80;;
17024;SDS011;8629;42.496;25.620;2023-08-17T05:05:46;6.10;;;5.30;;
17024;SDS011;8629;42.496;25.620;2023-08-17T05:08:12;5.00;;;4.60;;
17024;SDS011;8629;42.496;25.620;2023-08-17T05:10:40;5.20;;;4.70;;
17024;SDS011;8629;42.496;25.620;2023-08-17T05:13:06;5.57;;;4.40;;
17024;SDS011;8629;42.496;25.620;2023-08-17T05:15:35;9.53;;;5.13;;
17024;SDS011;8629;42.496;25.620;2023-08-17T05:18:01;5.33;;;4.40;;
17024;SDS011;8629;42.496;25.620;2023-08-17T05:20:29;7.80;;;4.60;;
17024;SDS011;8629;42.496;25.620;2023-08-17T05:22:57;7.27;;;5.13;;
17024;SDS011;8629;42.496;25.620;2023-08-17T05:25:23;5.00;;;4.40;;
17024;SDS011;8629;42.496;25.620;2023-08-17T05:27:51;5.73;;;5.00;;
17024;SDS011;8629;42.496;25.620;2023-08-17T05:30:18;5.03;;;4.63;;
17024;SDS011;8629;42.496;25.620;2023-08-17T05:32:45;6.57;;;4.70;;
17024;SDS011;8629;42.496;25.620;2023-08-17T05:35:12;5.43;;;4.93;;
17024;SDS011;8629;42.496;25.620;2023-08-17T05:37:39;5.30;;;4.70;;
17024;SDS011;8629;42.496;25.620;2023-08-17T05:40:08;6.60;;;4.80;;
17024;SDS011;8629;42.496;25.620;2023-08-17T05:42:35;8.07;;;4.93;;
17024;SDS011;8629;42.496;25.620;2023-08-17T05:45:03;4.27;;;3.90;;
17024;SDS011;8629;42.496;25.620;2023-08-17T05:47:30;5.50;;;4.17;;
17024;SDS011;8629;42.496;25.620;2023-08-17T05:49:57;5.13;;;3.90;;
17024;SDS011;8629;42.496;25.620;2023-08-17T05:52:23;6.77;;;4.57;;
17024;SDS011;8629;42.496;25.620;2023-08-17T05:54:50;4.10;;;3.70;;
17024;SDS011;8629;42.496;25.620;2023-08-17T05:57:18;3.73;;;3.37;;
17024;SDS011;8629;42.496;25.620;2023-08-17T05:59:45;4.13;;;3.57;;
17024;SDS011;8629;42.496;25.620;2023-08-17T06:02:12;10.63;;;4.23;;
17024;SDS011;8629;42.496;25.620;2023-08-17T06:04:39;5.53;;;3.97;;
17024;SDS011;8629;42.496;25.620;2023-08-17T06:07:06;5.97;;;3.63;;
17024;SDS011;8629;42.496;25.620;2023-08-17T06:09:32;5.23;;;3.23;;
17024;SDS011;8629;42.496;25.620;2023-08-17T06:11:59;3.73;;;3.30;;
17024;SDS011;8629;42.496;25.620;2023-08-17T06:14:28;6.13;;;3.03;;
17024;SDS011;8629;42.496;25.620;2023-08-17T06:16:55;3.57;;;3.27;;
17024;SDS011;8629;42.496;25.620;2023-08-17T06:19:21;4.07;;;3.40;;
17024;SDS011;8629;42.496;25.620;2023-08-17T06:21:48;8.03;;;3.70;;
17024;SDS011;8629;42.496;25.620;2023-08-17T06:24:15;3.67;;;3.10;;
17024;SDS011;8629;42.496;25.620;2023-08-17T06:26:42;5.57;;;3.40;;
17024;SDS011;8629;42.496;25.620;2023-08-17T06:29:09;4.10;;;3.70;;
17024;SDS011;8629;42.496;25.620;2023-08-17T06:31:37;3.60;;;3.30;;
17024;SDS011;8629;42.496;25.620;2023-08-17T06:34:04;4.60;;;3.30;;
17024;SDS011;8629;42.496;25.620;2023-08-17T06:36:31;3.77;;;2.67;;
17024;SDS011;8629;42.496;25.620;2023-08-17T06:38:58;4.40;;;2.80;;
17024;SDS011;8629;42.496;25.620;2023-08-17T06:41:25;5.13;;;2.83;;
17024;SDS011;8629;42.496;25.620;2023-08-17T06:43:52;2.47;;;2.37;;
17024;SDS011;8629;42.496;25.620;2023-08-17T06:46:18;5.07;;;3.47;;
17024;SDS011;8629;42.496;25.620;2023-08-17T06:48:47;2.83;;;2.60;;
17024;SDS011;8629;42.496;25.620;2023-08-17T06:51:13;4.20;;;2.47;;
17024;SDS011;8629;42.496;25.620;2023-08-17T06:53:40;4.63;;;2.60;;
17024;SDS011;8629;42.496;25.620;2023-08-17T06:56:08;3.87;;;2.50;;
17024;SDS011;8629;42.496;25.620;2023-08-17T06:58:35;3.50;;;2.83;;
17024;SDS011;8629;42.496;25.620;2023-08-17T07:01:02;3.40;;;2.47;;
17024;SDS011;8629;42.496;25.620;2023-08-17T07:03:29;2.30;;;2.03;;
17024;SDS011;8629;42.496;25.620;2023-08-17T07:05:57;4.27;;;2.33;;
17024;SDS011;8629;42.496;25.620;2023-08-17T07:08:24;4.20;;;2.25;;
17024;SDS011;8629;42.496;25.620;2023-08-17T07:10:51;5.05;;;2.55;;
17024;SDS011;8629;42.496;25.620;2023-08-17T07:13:17;3.25;;;2.63;;
17024;SDS011;8629;42.496;25.620;2023-08-17T07:15:44;3.22;;;2.67;;
17024;SDS011;8629;42.496;25.620;2023-08-17T07:18:11;3.72;;;2.58;;
17024;SDS011;8629;42.496;25.620;2023-08-17T07:20:38;2.60;;;2.40;;
17024;SDS011;8629;42.496;25.620;2023-08-17T07:23:06;2.80;;;2.58;;
17024;SDS011;8629;42.496;25.620;2023-08-17T07:25:32;3.03;;;2.83;;
17024;SDS011;8629;42.496;25.620;2023-08-17T07:27:59;3.60;;;2.78;;
17024;SDS011;8629;42.496;25.620;2023-08-17T07:30:27;5.93;;;3.03;;
17024;SDS011;8629;42.496;25.620;2023-08-17T07:32:54;3.72;;;3.20;;
17024;SDS011;8629;42.496;25.620;2023-08-17T07:35:21;4.60;;;2.95;;
17024;SDS011;8629;42.496;25.620;2023-08-17T07:37:48;3.45;;;3.10;;
17024;SDS011;8629;42.496;25.620;2023-08-17T07:40:16;4.22;;;2.90;;
17024;SDS011;8629;42.496;25.620;2023-08-17T07:42:43;4.65;;;2.65;;
17024;SDS011;8629;42.496;25.620;2023-08-17T07:45:10;7.50;;;3.15;;
17024;SDS011;8629;42.496;25.620;2023-08-17T07:47:37;3.25;;;2.63;;
17024;SDS011;8629;42.496;25.620;2023-08-17T07:50:04;3.83;;;3.40;;
17024;SDS011;8629;42.496;25.620;2023-08-17T07:52:31;6.45;;;3.20;;
17024;SDS011;8629;42.496;25.620;2023-08-17T07:54:58;4.53;;;2.88;;
17024;SDS011;8629;42.496;25.620;2023-08-17T07:57:26;9.15;;;3.15;;
17024;SDS011;8629;42.496;25.620;2023-08-17T07:59:53;3.83;;;3.10;;
17024;SDS011;8629;42.496;25.620;2023-08-17T08:02:20;5.60;;;3.05;;
17024;SDS011;8629;42.496;25.620;2023-08-17T08:04:47;3.78;;;2.83;;
17024;SDS011;8629;42.496;25.620;2023-08-17T08:07:13;3.05;;;2.83;;
17024;SDS011;8629;42.496;25.620;2023-08-17T08:09:40;4.60;;;2.95;;
17024;SDS011;8629;42.496;25.620;2023-08-17T08:12:07;2.92;;;2.72;;
17024;SDS011;8629;42.496;25.620;2023-08-17T08:14:35;6.60;;;3.33;;
17024;SDS011;8629;42.496;25.620;2023-08-17T08:17:02;5.60;;;3.08;;
17024;SDS011;8629;42.496;25.620;2023-08-17T08:19:29;3.45;;;3.15;;
17024;SDS011;8629;42.496;25.620;2023-08-17T08:21:57;4.32;;;3.38;;
17024;SDS011;8629;42.496;25.620;2023-08-17T08:24:24;3.58;;;3.13;;
17024;SDS011;8629;42.496;25.620;2023-08-17T08:26:56;3.50;;;3.03;;
17024;SDS011;8629;42.496;25.620;2023-08-17T08:29:23;5.63;;;3.20;;
17024;SDS011;8629;42.496;25.620;2023-08-17T08:31:51;4.63;;;3.80;;
17024;SDS011;8629;42.496;25.620;2023-08-17T08:34:18;4.95;;;3.17;;
17024;SDS011;8629;42.496;25.620;2023-08-17T08:36:44;3.60;;;2.72;;
17024;SDS011;8629;42.496;25.620;2023-08-17T08:39:12;2.58;;;2.38;;
17024;SDS011;8629;42.496;25.620;2023-08-17T08:41:39;4.50;;;3.03;;
17024;SDS011;8629;42.496;25.620;2023-08-17T08:44:05;3.42;;;2.85;;
17024;SDS011;8629;42.496;25.620;2023-08-17T08:46:32;3.65;;;2.85;;
17024;SDS011;8629;42.496;25.620;2023-08-17T08:49:01;3.10;;;2.90;;
17024;SDS011;8629;42.496;25.620;2023-08-17T08:51:29;2.83;;;2.60;;
17024;SDS011;8629;42.496;25.620;2023-08-17T08:54:00;4.03;;;3.42;;
17024;SDS011;8629;42.496;25.620;2023-08-17T08:56:28;7.80;;;2.80;;
17024;SDS011;8629;42.496;25.620;2023-08-17T08:58:58;4.72;;;2.90;;
17024;SDS011;8629;42.496;25.620;2023-08-17T09:01:25;3.35;;;2.85;;
17024;SDS011;8629;42.496;25.620;2023-08-17T09:03:52;3.60;;;3.25;;
17024;SDS011;8629;42.496;25.620;2023-08-17T09:06:21;3.33;;;3.03;;
17024;SDS011;8629;42.496;25.620;2023-08-17T09:08:50;3.03;;;2.80;;
17024;SDS011;8629;42.496;25.620;2023-08-17T09:11:17;4.18;;;3.70;;
17024;SDS011;8629;42.496;25.620;2023-08-17T09:13:43;4.57;;;2.97;;
17024;SDS011;8629;42.496;25.620;2023-08-17T09:16:10;2.92;;;2.72;;
17024;SDS011;8629;42.496;25.620;2023-08-17T09:18:37;3.17;;;2.88;;
17024;SDS011;8629;42.496;25.620;2023-08-17T09:21:04;3.50;;;2.72;;
17024;SDS011;8629;42.496;25.620;2023-08-17T09:23:32;3.30;;;3.05;;
17024;SDS011;8629;42.496;25.620;2023-08-17T09:25:59;3.38;;;3.08;;
17024;SDS011;8629;42.496;25.620;2023-08-17T09:28:32;4.07;;;3.28;;
17024;SDS011;8629;42.496;25.620;2023-08-17T09:30:59;6.50;;;3.38;;
17024;SDS011;8629;42.496;25.620;2023-08-17T09:33:29;5.40;;;3.03;;
17024;SDS011;8629;42.496;25.620;2023-08-17T09:35:57;6.43;;;3.00;;
17024;SDS011;8629;42.496;25.620;2023-08-17T09:38:24;5.18;;;2.70;;
17024;SDS011;8629;42.496;25.620;2023-08-17T09:40:53;3.72;;;3.30;;
17024;SDS011;8629;42.496;25.620;2023-08-17T09:43:20;4.80;;;3.50;;
17024;SDS011;8629;42.496;25.620;2023-08-17T09:45:48;3.50;;;2.72;;
17024;SDS011;8629;42.496;25.620;2023-08-17T09:48:15;5.43;;;2.92;;
17024;SDS011;8629;42.496;25.620;2023-08-17T09:50:44;4.90;;;2.70;;
17024;SDS011;8629;42.496;25.620;2023-08-17T09:53:12;5.93;;;3.33;;
17024;SDS011;8629;42.496;25.620;2023-08-17T09:55:39;3.00;;;2.80;;
17024;SDS011;8629;42.496;25.620;2023-08-17T09:58:08;3.17;;;2.95;;
17024;SDS011;8629;42.496;25.620;2023-08-17T10:00:40;3.00;;;2.70;;
17024;SDS011;8629;42.496;25.620;2023-08-17T10:03:09;2.70;;;2.50;;
17024;SDS011;8629;42.496;25.620;2023-08-17T10:05:37;3.70;;;2.95;;
17024;SDS011;8629;42.496;25.620;2023-08-17T10:08:05;2.65;;;2.45;;
17024;SDS011;8629;42.496;25.620;2023-08-17T10:10:34;3.53;;;2.80;;
17024;SDS011;8629;42.496;25.620;2023-08-17T10:13:05;3.28;;;2.67;;
17024;SDS011;8629;42.496;25.620;2023-08-17T10:15:37;2.60;;;2.22;;
17024;SDS011;8629;42.496;25.620;2023-08-17T10:18:14;3.05;;;2.63;;
17024;SDS011;8629;42.496;25.620;2023-08-17T10:20:45;3.13;;;2.63;;
17024;SDS011;8629;42.496;25.620;2023-08-17T10:23:16;3.28;;;2.25;;
17024;SDS011;8629;42.496;25.620;2023-08-17T10:25:44;2.50;;;2.25;;
17024;SDS011;8629;42.496;25.620;2023-08-17T10:28:13;2.72;;;2.50;;
17024;SDS011;8629;42.496;25.620;2023-08-17T10:30:41;3.30;;;2.70;;
17024;SDS011;8629;42.496;25.620;2023-08-17T10:33:08;3.47;;;2.80;;
17024;SDS011;8629;42.496;25.620;2023-08-17T10:35:36;4.55;;;2.28;;
17024;SDS011;8629;42.496;25.620;2023-08-17T10:38:04;4.30;;;2.50;;
17024;SDS011;8629;42.496;25.620;2023-08-17T10:40:34;5.95;;;2.70;;
17024;SDS011;8629;42.496;25.620;2023-08-17T10:43:02;3.95;;;2.50;;
17024;SDS011;8629;42.496;25.620;2023-08-17T10:45:32;3.15;;;2.67;;
17024;SDS011;8629;42.496;25.620;2023-08-17T10:51:01;5.38;;;2.58;;
17024;SDS011;8629;42.496;25.620;2023-08-17T10:53:33;3.08;;;2.47;;
17024;SDS011;8629;42.496;25.620;2023-08-17T10:56:06;2.97;;;2.15;;
17024;SDS011;8629;42.496;25.620;2023-08-17T10:58:34;2.58;;;2.47;;
17024;SDS011;8629;42.496;25.620;2023-08-17T11:01:03;2.55;;;2.35;;
17024;SDS011;8629;42.496;25.620;2023-08-17T11:03:30;3.67;;;2.60;;
17024;SDS011;8629;42.496;25.620;2023-08-17T11:05:58;2.80;;;2.60;;
17024;SDS011;8629;42.496;25.620;2023-08-17T11:08:51;3.55;;;3.25;;
17024;SDS011;8629;42.496;25.620;2023-08-17T11:11:19;3.00;;;2.38;;
17024;SDS011;8629;42.496;25.620;2023-08-17T11:13:46;3.60;;;3.03;;
17024;SDS011;8629;42.496;25.620;2023-08-17T11:16:15;3.63;;;2.45;;
17024;SDS011;8629;42.496;25.620;2023-08-17T11:18:44;13.35;;;3.38;;
17024;SDS011;8629;42.496;25.620;2023-08-17T11:21:12;3.42;;;2.90;;
17024;SDS011;8629;42.496;25.620;2023-08-17T11:23:40;4.70;;;2.67;;
17024;SDS011;8629;42.496;25.620;2023-08-17T11:26:07;4.63;;;2.55;;
17024;SDS011;8629;42.496;25.620;2023-08-17T11:28:34;6.65;;;2.88;;
17024;SDS011;8629;42.496;25.620;2023-08-17T11:31:04;4.28;;;2.95;;
17024;SDS011;8629;42.496;25.620;2023-08-17T11:33:34;8.05;;;3.05;;
17024;SDS011;8629;42.496;25.620;2023-08-17T11:36:03;3.05;;;2.35;;
17024;SDS011;8629;42.496;25.620;2023-08-17T11:38:31;5.18;;;2.78;;
17024;SDS011;8629;42.496;25.620;2023-08-17T11:40:59;3.60;;;2.40;;
17024;SDS011;8629;42.496;25.620;2023-08-17T11:43:26;2.63;;;2.42;;
17024;SDS011;8629;42.496;25.620;2023-08-17T11:45:54;2.80;;;2.60;;
17024;SDS011;8629;42.496;25.620;2023-08-17T11:48:21;3.45;;;3.05;;
17024;SDS011;8629;42.496;25.620;2023-08-17T11:50:50;3.10;;;2.90;;
17024;SDS011;8629;42.496;25.620;2023-08-17T11:53:17;5.65;;;2.67;;
17024;SDS011;8629;42.496;25.620;2023-08-17T11:55:45;6.85;;;2.90;;
17024;SDS011;8629;42.496;25.620;2023-08-17T11:58:12;7.47;;;3.00;;
17024;SDS011;8629;42.496;25.620;2023-08-17T12:00:39;5.43;;;3.00;;
17024;SDS011;8629;42.496;25.620;2023-08-17T12:03:12;3.45;;;3.15;;
17024;SDS011;8629;42.496;25.620;2023-08-17T12:05:39;5.63;;;3.55;;
17024;SDS011;8629;42.496;25.620;2023-08-17T12:08:08;6.72;;;3.42;;
17024;SDS011;8629;42.496;25.620;2023-08-17T12:10:36;7.53;;;3.00;;
17024;SDS011;8629;42.496;25.620;2023-08-17T12:13:03;4.78;;;3.78;;
17024;SDS011;8629;42.496;25.620;2023-08-17T12:15:30;3.50;;;3.15;;
17024;SDS011;8629;42.496;25.620;2023-08-17T12:17:58;8.93;;;3.33;;
17024;SDS011;8629;42.496;25.620;2023-08-17T12:20:26;3.67;;;3.13;;
17024;SDS011;8629;42.496;25.620;2023-08-17T12:22:53;3.72;;;3.28;;
17024;SDS011;8629;42.496;25.620;2023-08-17T12:25:21;3.95;;;3.55;;
17024;SDS011;8629;42.496;25.620;2023-08-17T12:27:49;5.03;;;3.20;;
17024;SDS011;8629;42.496;25.620;2023-08-17T12:30:23;3.47;;;3.17;;
17024;SDS011;8629;42.496;25.620;2023-08-17T12:32:51;4.72;;;3.38;;
17024;SDS011;8629;42.496;25.620;2023-08-17T12:35:18;3.60;;;3.33;;
17024;SDS011;8629;42.496;25.620;2023-08-17T12:37:46;3.60;;;3.30;;
17024;SDS011;8629;42.496;25.620;2023-08-17T12:40:13;4.22;;;3.83;;
17024;SDS011;8629;42.496;25.620;2023-08-17T12:42:41;3.75;;;3.45;;
17024;SDS011;8629;42.496;25.620;2023-08-17T12:45:08;3.88;;;3.58;;
17024;SDS011;8629;42.496;25.620;2023-08-17T12:47:36;4.65;;;3.78;;
17024;SDS011;8629;42.496;25.620;2023-08-17T12:50:03;5.68;;;3.63;;
17024;SDS011;8629;42.496;25.620;2023-08-17T12:52:30;4.05;;;3.33;;
17024;SDS011;8629;42.496;25.620;2023-08-17T12:54:57;3.70;;;3.40;;
17024;SDS011;8629;42.496;25.620;2023-08-17T12:57:24;4.07;;;3.78;;
17024;SDS011;8629;42.496;25.620;2023-08-17T12:59:53;4.13;;;3.83;;
17024;SDS011;8629;42.496;25.620;2023-08-17T13:02:20;5.65;;;4.22;;
17024;SDS011;8629;42.496;25.620;2023-08-17T13:04:47;4.03;;;3.72;;
17024;SDS011;8629;42.496;25.620;2023-08-17T13:07:14;4.30;;;3.95;;
17024;SDS011;8629;42.496;25.620;2023-08-17T13:09:40;4.32;;;3.92;;
17024;SDS011;8629;42.496;25.620;2023-08-17T13:12:07;4.68;;;3.47;;
17024;SDS011;8629;42.496;25.620;2023-08-17T13:14:35;4.82;;;3.53;;
17024;SDS011;8629;42.496;25.620;2023-08-17T13:17:04;7.13;;;3.85;;
17024;SDS011;8629;42.496;25.620;2023-08-17T13:19:30;5.30;;;4.20;;
17024;SDS011;8629;42.496;25.620;2023-08-17T13:21:57;7.00;;;3.92;;
17024;SDS011;8629;42.496;25.620;2023-08-17T13:24:24;6.40;;;4.32;;
17024;SDS011;8629;42.496;25.620;2023-08-17T13:26:51;4.25;;;3.53;;
17024;SDS011;8629;42.496;25.620;2023-08-17T13:29:19;3.85;;;3.65;;
17024;SDS011;8629;42.496;25.620;2023-08-17T13:31:46;4.25;;;3.80;;
17024;SDS011;8629;42.496;25.620;2023-08-17T13:34:15;7.05;;;4.22;;
17024;SDS011;8629;42.496;25.620;2023-08-17T13:36:41;5.85;;;4.00;;
17024;SDS011;8629;42.496;25.620;2023-08-17T13:39:08;4.20;;;3.80;;
17024;SDS011;8629;42.496;25.620;2023-08-17T13:41:35;6.07;;;4.05;;
17024;SDS011;8629;42.496;25.620;2023-08-17T13:44:02;4.90;;;4.07;;
17024;SDS011;8629;42.496;25.620;2023-08-17T13:46:32;4.18;;;3.85;;
17024;SDS011;8629;42.496;25.620;2023-08-17T13:48:58;3.78;;;3.47;;
17024;SDS011;8629;42.496;25.620;2023-08-17T13:51:27;5.10;;;4.00;;
17024;SDS011;8629;42.496;25.620;2023-08-17T13:53:54;4.47;;;3.90;;
17024;SDS011;8629;42.496;25.620;2023-08-17T13:56:21;8.57;;;3.67;;
17024;SDS011;8629;42.496;25.620;2023-08-17T13:58:47;3.92;;;3.63;;
17024;SDS011;8629;42.496;25.620;2023-08-17T14:01:14;4.50;;;4.13;;
17024;SDS011;8629;42.496;25.620;2023-08-17T14:03:42;5.38;;;3.70;;
17024;SDS011;8629;42.496;25.620;2023-08-17T14:06:09;6.00;;;4.30;;
17024;SDS011;8629;42.496;25.620;2023-08-17T14:08:37;3.47;;;3.28;;
17024;SDS011;8629;42.496;25.620;2023-08-17T14:11:04;5.72;;;3.50;;
17024;SDS011;8629;42.496;25.620;2023-08-17T14:13:32;3.70;;;3.40;;
17024;SDS011;8629;42.496;25.620;2023-08-17T14:15:59;3.97;;;3.55;;
17024;SDS011;8629;42.496;25.620;2023-08-17T14:18:26;5.05;;;3.97;;
17024;SDS011;8629;42.496;25.620;2023-08-17T14:20:56;8.60;;;4.28;;
17024;SDS011;8629;42.496;25.620;2023-08-17T14:23:22;4.57;;;3.83;;
17024;SDS011;8629;42.496;25.620;2023-08-17T14:25:50;5.07;;;4.15;;
17024;SDS011;8629;42.496;25.620;2023-08-17T14:28:17;5.00;;;4.50;;
17024;SDS011;8629;42.496;25.620;2023-08-17T14:30:45;6.15;;;4.28;;
17024;SDS011;8629;42.496;25.620;2023-08-17T14:33:12;3.97;;;3.67;;
17024;SDS011;8629;42.496;25.620;2023-08-17T14:35:39;4.60;;;3.65;;
17024;SDS011;8629;42.496;25.620;2023-08-17T14:38:06;4.80;;;3.85;;
17024;SDS011;8629;42.496;25.620;2023-08-17T14:40:34;5.47;;;4.10;;
17024;SDS011;8629;42.496;25.620;2023-08-17T14:43:03;4.05;;;3.75;;
17024;SDS011;8629;42.496;25.620;2023-08-17T14:45:30;4.22;;;3.70;;
17024;SDS011;8629;42.496;25.620;2023-08-17T14:47:56;10.20;;;4.65;;
17024;SDS011;8629;42.496;25.620;2023-08-17T14:50:24;4.82;;;4.43;;
17024;SDS011;8629;42.496;25.620;2023-08-17T14:52:50;4.30;;;3.90;;